sensor_id;sensor_type;location;lat;lon;timestamp;P1;durP1;ratioP1;P2;durP2;ratioP2
1719;SDS011;857;52.872;9.692;2022-07-17T00:01:30;3.27;;;2.00;;
1719;SDS011;857;52.872;9.692;2022-07-17T00:03:58;4.40;;;2.50;;
1719;SDS011;857;52.872;9.692;2022-07-17T00:06:26;2.53;;;2.03;;
1719;SDS011;857;52.872;9.692;2022-07-17T00:08:53;2.23;;;1.70;;
1719;SDS011;857;52.872;9.692;2022-07-17T00:11:21;3.57;;;2.10;;
1719;SDS011;857;52.872;9.692;2022-07-17T00:13:49;4.37;;;2.33;;
1719;SDS011;857;52.872;9.692;2022-07-17T00:16:18;3.07;;;2.10;;
1719;SDS011;857;52.872;9.692;2022-07-17T00:18:45;2.67;;;2.37;;
1719;SDS011;857;52.872;9.692;2022-07-17T00:21:13;2.83;;;2.47;;
1719;SDS011;857;52.872;9.692;2022-07-17T00:23:41;2.23;;;2.03;;
1719;SDS011;857;52.872;9.692;2022-07-17T00:26:08;4.67;;;2.70;;
1719;SDS011;857;52.872;9.692;2022-07-17T00:28:36;3.00;;;2.70;;
1719;SDS011;857;52.872;9.692;2022-07-17T00:31:04;6.30;;;2.60;;
1719;SDS011;857;52.872;9.692;2022-07-17T00:33:33;2.93;;;2.50;;
1719;SDS011;857;52.872;9.692;2022-07-17T00:36:01;7.27;;;2.60;;
1719;SDS011;857;52.872;9.692;2022-07-17T00:38:28;4.20;;;2.53;;
1719;SDS011;857;52.872;9.692;2022-07-17T00:40:57;2.67;;;2.37;;
1719;SDS011;857;52.872;9.692;2022-07-17T00:43:25;4.00;;;2.50;;
1719;SDS011;857;52.872;9.692;2022-07-17T00:45:57;2.90;;;2.70;;
1719;SDS011;857;52.872;9.692;2022-07-17T00:48:25;3.23;;;2.93;;
1719;SDS011;857;52.872;9.692;2022-07-17T00:50:54;2.87;;;2.50;;
1719;SDS011;857;52.872;9.692;2022-07-17T00:53:22;4.60;;;2.50;;
1719;SDS011;857;52.872;9.692;2022-07-17T00:55:49;3.07;;;2.60;;
1719;SDS011;857;52.872;9.692;2022-07-17T00:58:18;3.33;;;2.77;;
1719;SDS011;857;52.872;9.692;2022-07-17T01:00:46;3.30;;;2.70;;
1719;SDS011;857;52.872;9.692;2022-07-17T01:03:14;2.87;;;2.50;;
1719;SDS011;857;52.872;9.692;2022-07-17T01:05:42;3.40;;;3.10;;
1719;SDS011;857;52.872;9.692;2022-07-17T01:08:11;3.97;;;2.70;;
1719;SDS011;857;52.872;9.692;2022-07-17T01:10:39;4.10;;;3.40;;
1719;SDS011;857;52.872;9.692;2022-07-17T01:13:07;3.50;;;3.20;;
1719;SDS011;857;52.872;9.692;2022-07-17T01:15:36;3.80;;;3.30;;
1719;SDS011;857;52.872;9.692;2022-07-17T01:18:04;3.83;;;3.13;;
1719;SDS011;857;52.872;9.692;2022-07-17T01:20:32;3.13;;;2.93;;
1719;SDS011;857;52.872;9.692;2022-07-17T01:23:02;2.23;;;2.03;;
1719;SDS011;857;52.872;9.692;2022-07-17T01:25:30;3.10;;;2.90;;
1719;SDS011;857;52.872;9.692;2022-07-17T01:27:58;2.70;;;2.50;;
1719;SDS011;857;52.872;9.692;2022-07-17T01:30:25;3.10;;;2.80;;
1719;SDS011;857;52.872;9.692;2022-07-17T01:32:53;3.13;;;2.83;;
1719;SDS011;857;52.872;9.692;2022-07-17T01:35:21;4.47;;;2.53;;
1719;SDS011;857;52.872;9.692;2022-07-17T01:37:49;2.33;;;2.13;;
1719;SDS011;857;52.872;9.692;2022-07-17T01:40:18;3.10;;;2.80;;
1719;SDS011;857;52.872;9.692;2022-07-17T01:42:46;3.73;;;2.50;;
1719;SDS011;857;52.872;9.692;2022-07-17T01:45:15;3.77;;;3.23;;
1719;SDS011;857;52.872;9.692;2022-07-17T01:47:43;2.77;;;2.50;;
1719;SDS011;857;52.872;9.692;2022-07-17T01:50:11;3.27;;;2.67;;
1719;SDS011;857;52.872;9.692;2022-07-17T01:52:40;3.63;;;2.70;;
1719;SDS011;857;52.872;9.692;2022-07-17T01:55:08;3.27;;;2.50;;
1719;SDS011;857;52.872;9.692;2022-07-17T01:57:38;2.50;;;2.30;;
1719;SDS011;857;52.872;9.692;2022-07-17T02:00:08;3.03;;;2.47;;
1719;SDS011;857;52.872;9.692;2022-07-17T02:02:38;3.17;;;2.37;;
1719;SDS011;857;52.872;9.692;2022-07-17T02:05:06;3.43;;;2.77;;
1719;SDS011;857;52.872;9.692;2022-07-17T02:07:34;4.63;;;3.40;;
1719;SDS011;857;52.872;9.692;2022-07-17T02:10:06;2.87;;;2.60;;
1719;SDS011;857;52.872;9.692;2022-07-17T02:12:34;2.70;;;2.50;;
1719;SDS011;857;52.872;9.692;2022-07-17T02:15:04;3.00;;;2.57;;
1719;SDS011;857;52.872;9.692;2022-07-17T02:17:32;4.13;;;3.00;;
1719;SDS011;857;52.872;9.692;2022-07-17T02:19:59;3.07;;;2.73;;
1719;SDS011;857;52.872;9.692;2022-07-17T02:22:27;4.60;;;3.30;;
1719;SDS011;857;52.872;9.692;2022-07-17T02:24:55;4.13;;;2.70;;
1719;SDS011;857;52.872;9.692;2022-07-17T02:27:22;2.67;;;2.47;;
1719;SDS011;857;52.872;9.692;2022-07-17T02:29:50;2.90;;;2.70;;
1719;SDS011;857;52.872;9.692;2022-07-17T02:32:19;2.83;;;2.60;;
1719;SDS011;857;52.872;9.692;2022-07-17T02:34:47;2.70;;;2.50;;
1719;SDS011;857;52.872;9.692;2022-07-17T02:37:14;3.83;;;3.00;;
1719;SDS011;857;52.872;9.692;2022-07-17T02:39:42;3.80;;;2.70;;
1719;SDS011;857;52.872;9.692;2022-07-17T02:42:19;4.67;;;2.97;;
1719;SDS011;857;52.872;9.692;2022-07-17T02:44:47;4.40;;;2.70;;
1719;SDS011;857;52.872;9.692;2022-07-17T02:47:21;3.17;;;2.87;;
1719;SDS011;857;52.872;9.692;2022-07-17T02:49:49;2.93;;;2.73;;
1719;SDS011;857;52.872;9.692;2022-07-17T02:52:17;3.30;;;3.00;;
1719;SDS011;857;52.872;9.692;2022-07-17T02:54:44;3.13;;;2.83;;
1719;SDS011;857;52.872;9.692;2022-07-17T02:57:12;2.80;;;2.63;;
1719;SDS011;857;52.872;9.692;2022-07-17T02:59:40;3.77;;;3.00;;
1719;SDS011;857;52.872;9.692;2022-07-17T03:02:08;3.93;;;2.70;;
1719;SDS011;857;52.872;9.692;2022-07-17T03:04:37;4.30;;;3.00;;
1719;SDS011;857;52.872;9.692;2022-07-17T03:07:05;3.57;;;3.20;;
1719;SDS011;857;52.872;9.692;2022-07-17T03:09:33;2.87;;;2.67;;
1719;SDS011;857;52.872;9.692;2022-07-17T03:12:00;3.33;;;3.10;;
1719;SDS011;857;52.872;9.692;2022-07-17T03:14:28;3.73;;;3.10;;
1719;SDS011;857;52.872;9.692;2022-07-17T03:16:56;3.50;;;3.20;;
1719;SDS011;857;52.872;9.692;2022-07-17T03:19:23;3.10;;;2.80;;
1719;SDS011;857;52.872;9.692;2022-07-17T03:21:52;3.50;;;2.90;;
1719;SDS011;857;52.872;9.692;2022-07-17T03:24:20;2.77;;;2.57;;
1719;SDS011;857;52.872;9.692;2022-07-17T03:26:48;5.43;;;3.03;;
1719;SDS011;857;52.872;9.692;2022-07-17T03:29:15;4.13;;;2.80;;
1719;SDS011;857;52.872;9.692;2022-07-17T03:31:43;4.27;;;3.17;;
1719;SDS011;857;52.872;9.692;2022-07-17T03:34:11;3.60;;;3.10;;
1719;SDS011;857;52.872;9.692;2022-07-17T03:36:39;2.90;;;2.70;;
1719;SDS011;857;52.872;9.692;2022-07-17T03:39:08;4.73;;;2.70;;
1719;SDS011;857;52.872;9.692;2022-07-17T03:41:36;5.60;;;3.53;;
1719;SDS011;857;52.872;9.692;2022-07-17T03:44:04;3.47;;;3.17;;
1719;SDS011;857;52.872;9.692;2022-07-17T03:46:32;3.20;;;2.90;;
1719;SDS011;857;52.872;9.692;2022-07-17T03:49:00;3.40;;;3.07;;
1719;SDS011;857;52.872;9.692;2022-07-17T03:51:27;4.17;;;3.70;;
1719;SDS011;857;52.872;9.692;2022-07-17T03:53:55;4.90;;;3.43;;
1719;SDS011;857;52.872;9.692;2022-07-17T03:56:24;3.50;;;3.20;;
1719;SDS011;857;52.872;9.692;2022-07-17T03:58:52;4.13;;;3.20;;
1719;SDS011;857;52.872;9.692;2022-07-17T04:01:20;3.63;;;2.90;;
1719;SDS011;857;52.872;9.692;2022-07-17T04:03:47;4.07;;;3.40;;
1719;SDS011;857;52.872;9.692;2022-07-17T04:06:15;4.73;;;3.80;;
1719;SDS011;857;52.872;9.692;2022-07-17T04:08:43;4.00;;;3.57;;
1719;SDS011;857;52.872;9.692;2022-07-17T04:11:10;5.10;;;3.17;;
1719;SDS011;857;52.872;9.692;2022-07-17T04:13:39;4.57;;;3.40;;
1719;SDS011;857;52.872;9.692;2022-07-17T04:16:07;2.97;;;2.67;;
1719;SDS011;857;52.872;9.692;2022-07-17T04:18:35;1.67;;;1.57;;
1719;SDS011;857;52.872;9.692;2022-07-17T04:21:04;1.90;;;1.73;;
1719;SDS011;857;52.872;9.692;2022-07-17T04:23:32;3.73;;;2.93;;
1719;SDS011;857;52.872;9.692;2022-07-17T04:25:59;3.20;;;2.60;;
1719;SDS011;857;52.872;9.692;2022-07-17T04:28:27;3.80;;;3.20;;
1719;SDS011;857;52.872;9.692;2022-07-17T04:30:56;4.20;;;3.30;;
1719;SDS011;857;52.872;9.692;2022-07-17T04:33:24;3.97;;;3.43;;
1719;SDS011;857;52.872;9.692;2022-07-17T04:35:52;3.27;;;2.97;;
1719;SDS011;857;52.872;9.692;2022-07-17T04:38:20;4.10;;;3.17;;
1719;SDS011;857;52.872;9.692;2022-07-17T04:40:47;3.57;;;2.87;;
1719;SDS011;857;52.872;9.692;2022-07-17T04:43:15;3.40;;;3.00;;
1719;SDS011;857;52.872;9.692;2022-07-17T04:45:43;3.57;;;3.27;;
1719;SDS011;857;52.872;9.692;2022-07-17T04:48:12;3.23;;;2.47;;
1719;SDS011;857;52.872;9.692;2022-07-17T04:50:40;2.73;;;2.40;;
1719;SDS011;857;52.872;9.692;2022-07-17T04:53:07;2.50;;;2.30;;
1719;SDS011;857;52.872;9.692;2022-07-17T04:55:35;5.60;;;3.53;;
1719;SDS011;857;52.872;9.692;2022-07-17T04:58:03;4.53;;;2.90;;
1719;SDS011;857;52.872;9.692;2022-07-17T05:00:31;3.77;;;3.13;;
1719;SDS011;857;52.872;9.692;2022-07-17T05:02:59;3.43;;;2.70;;
1719;SDS011;857;52.872;9.692;2022-07-17T05:05:28;2.70;;;2.50;;
1719;SDS011;857;52.872;9.692;2022-07-17T05:07:56;6.37;;;3.40;;
1719;SDS011;857;52.872;9.692;2022-07-17T05:10:23;5.57;;;3.27;;
1719;SDS011;857;52.872;9.692;2022-07-17T05:12:51;4.40;;;2.70;;
1719;SDS011;857;52.872;9.692;2022-07-17T05:15:19;3.07;;;2.77;;
1719;SDS011;857;52.872;9.692;2022-07-17T05:17:47;5.10;;;3.13;;
1719;SDS011;857;52.872;9.692;2022-07-17T05:20:14;2.20;;;1.90;;
1719;SDS011;857;52.872;9.692;2022-07-17T05:22:43;6.70;;;2.50;;
1719;SDS011;857;52.872;9.692;2022-07-17T05:25:11;6.03;;;3.13;;
1719;SDS011;857;52.872;9.692;2022-07-17T05:27:39;4.00;;;2.80;;
1719;SDS011;857;52.872;9.692;2022-07-17T05:30:07;4.47;;;3.30;;
1719;SDS011;857;52.872;9.692;2022-07-17T05:32:35;4.70;;;2.80;;
1719;SDS011;857;52.872;9.692;2022-07-17T05:35:03;3.83;;;2.50;;
1719;SDS011;857;52.872;9.692;2022-07-17T05:37:30;3.20;;;2.50;;
1719;SDS011;857;52.872;9.692;2022-07-17T05:40:00;4.50;;;2.93;;
1719;SDS011;857;52.872;9.692;2022-07-17T05:42:28;3.73;;;2.90;;
1719;SDS011;857;52.872;9.692;2022-07-17T05:44:55;3.77;;;2.83;;
1719;SDS011;857;52.872;9.692;2022-07-17T05:47:24;5.63;;;2.60;;
1719;SDS011;857;52.872;9.692;2022-07-17T05:49:52;2.30;;;1.77;;
1719;SDS011;857;52.872;9.692;2022-07-17T05:52:19;5.40;;;2.50;;
1719;SDS011;857;52.872;9.692;2022-07-17T05:54:47;3.43;;;2.70;;
1719;SDS011;857;52.872;9.692;2022-07-17T05:57:16;4.60;;;2.87;;
1719;SDS011;857;52.872;9.692;2022-07-17T05:59:44;3.87;;;2.70;;
1719;SDS011;857;52.872;9.692;2022-07-17T06:02:11;3.67;;;2.80;;
1719;SDS011;857;52.872;9.692;2022-07-17T06:04:39;2.60;;;2.37;;
1719;SDS011;857;52.872;9.692;2022-07-17T06:07:07;4.17;;;2.80;;
1719;SDS011;857;52.872;9.692;2022-07-17T06:09:34;7.60;;;2.93;;
1719;SDS011;857;52.872;9.692;2022-07-17T06:12:02;4.60;;;2.73;;
1719;SDS011;857;52.872;9.692;2022-07-17T06:14:32;1.93;;;1.83;;
1719;SDS011;857;52.872;9.692;2022-07-17T06:16:59;3.33;;;2.80;;
1719;SDS011;857;52.872;9.692;2022-07-17T06:19:27;3.83;;;3.20;;
1719;SDS011;857;52.872;9.692;2022-07-17T06:21:55;4.90;;;3.47;;
1719;SDS011;857;52.872;9.692;2022-07-17T06:24:22;1.63;;;1.53;;
1719;SDS011;857;52.872;9.692;2022-07-17T06:26:50;4.93;;;3.40;;
1719;SDS011;857;52.872;9.692;2022-07-17T06:29:18;4.17;;;2.50;;
1719;SDS011;857;52.872;9.692;2022-07-17T06:31:47;2.10;;;1.90;;
1719;SDS011;857;52.872;9.692;2022-07-17T06:34:14;3.57;;;2.47;;
1719;SDS011;857;52.872;9.692;2022-07-17T06:36:42;3.30;;;3.00;;
1719;SDS011;857;52.872;9.692;2022-07-17T06:39:10;1.70;;;1.60;;
1719;SDS011;857;52.872;9.692;2022-07-17T06:41:37;2.97;;;2.00;;
1719;SDS011;857;52.872;9.692;2022-07-17T06:44:05;5.50;;;2.57;;
1719;SDS011;857;52.872;9.692;2022-07-17T06:46:33;2.00;;;1.70;;
1719;SDS011;857;52.872;9.692;2022-07-17T06:49:02;3.80;;;2.60;;
1719;SDS011;857;52.872;9.692;2022-07-17T06:51:30;2.90;;;2.30;;
1719;SDS011;857;52.872;9.692;2022-07-17T06:53:57;3.40;;;2.00;;
1719;SDS011;857;52.872;9.692;2022-07-17T06:56:25;2.67;;;2.10;;
1719;SDS011;857;52.872;9.692;2022-07-17T06:58:53;1.80;;;1.50;;
1719;SDS011;857;52.872;9.692;2022-07-17T07:01:20;4.20;;;2.57;;
1719;SDS011;857;52.872;9.692;2022-07-17T07:03:48;1.70;;;1.33;;
1719;SDS011;857;52.872;9.692;2022-07-17T07:06:17;5.17;;;2.73;;
1719;SDS011;857;52.872;9.692;2022-07-17T07:08:45;4.63;;;2.00;;
1719;SDS011;857;52.872;9.692;2022-07-17T07:11:12;2.20;;;2.00;;
1719;SDS011;857;52.872;9.692;2022-07-17T07:13:40;7.67;;;2.90;;
1719;SDS011;857;52.872;9.692;2022-07-17T07:16:08;4.73;;;2.40;;
1719;SDS011;857;52.872;9.692;2022-07-17T07:18:36;4.43;;;2.23;;
1719;SDS011;857;52.872;9.692;2022-07-17T07:21:04;3.50;;;2.73;;
1719;SDS011;857;52.872;9.692;2022-07-17T07:23:33;1.67;;;1.53;;
1719;SDS011;857;52.872;9.692;2022-07-17T07:26:01;4.33;;;1.80;;
1719;SDS011;857;52.872;9.692;2022-07-17T07:28:29;1.97;;;1.50;;
1719;SDS011;857;52.872;9.692;2022-07-17T07:30:56;6.63;;;2.53;;
1719;SDS011;857;52.872;9.692;2022-07-17T07:33:24;4.70;;;1.63;;
1719;SDS011;857;52.872;9.692;2022-07-17T07:35:52;3.37;;;1.87;;
1719;SDS011;857;52.872;9.692;2022-07-17T07:38:19;2.03;;;1.80;;
1719;SDS011;857;52.872;9.692;2022-07-17T07:40:48;3.70;;;2.00;;
1719;SDS011;857;52.872;9.692;2022-07-17T07:43:16;2.27;;;2.00;;
1719;SDS011;857;52.872;9.692;2022-07-17T07:45:44;2.87;;;2.10;;
1719;SDS011;857;52.872;9.692;2022-07-17T07:48:11;4.00;;;2.30;;
1719;SDS011;857;52.872;9.692;2022-07-17T07:50:39;1.90;;;1.30;;
1719;SDS011;857;52.872;9.692;2022-07-17T07:53:07;3.53;;;2.07;;
1719;SDS011;857;52.872;9.692;2022-07-17T07:55:35;1.90;;;1.70;;
1719;SDS011;857;52.872;9.692;2022-07-17T07:58:04;2.50;;;1.37;;
1719;SDS011;857;52.872;9.692;2022-07-17T08:00:32;1.67;;;1.40;;
1719;SDS011;857;52.872;9.692;2022-07-17T08:03:00;5.93;;;2.50;;
1719;SDS011;857;52.872;9.692;2022-07-17T08:05:28;3.67;;;2.07;;
1719;SDS011;857;52.872;9.692;2022-07-17T08:07:56;4.00;;;1.80;;
1719;SDS011;857;52.872;9.692;2022-07-17T08:10:24;2.27;;;1.93;;
1719;SDS011;857;52.872;9.692;2022-07-17T08:12:52;2.70;;;1.50;;
1719;SDS011;857;52.872;9.692;2022-07-17T08:15:21;3.10;;;1.60;;
1719;SDS011;857;52.872;9.692;2022-07-17T08:17:51;3.13;;;2.20;;
1719;SDS011;857;52.872;9.692;2022-07-17T08:20:19;7.53;;;2.30;;
1719;SDS011;857;52.872;9.692;2022-07-17T08:22:48;2.33;;;1.50;;
1719;SDS011;857;52.872;9.692;2022-07-17T08:25:16;4.13;;;1.83;;
1719;SDS011;857;52.872;9.692;2022-07-17T08:27:44;2.90;;;1.73;;
1719;SDS011;857;52.872;9.692;2022-07-17T08:30:12;3.87;;;2.00;;
1719;SDS011;857;52.872;9.692;2022-07-17T08:32:42;4.20;;;2.17;;
1719;SDS011;857;52.872;9.692;2022-07-17T08:35:10;3.50;;;2.30;;
1719;SDS011;857;52.872;9.692;2022-07-17T08:37:42;3.80;;;2.30;;
1719;SDS011;857;52.872;9.692;2022-07-17T08:40:14;6.83;;;2.03;;
1719;SDS011;857;52.872;9.692;2022-07-17T08:42:42;5.80;;;2.60;;
1719;SDS011;857;52.872;9.692;2022-07-17T08:45:10;4.43;;;2.20;;
1719;SDS011;857;52.872;9.692;2022-07-17T08:47:38;1.70;;;1.60;;
1719;SDS011;857;52.872;9.692;2022-07-17T08:50:08;5.77;;;2.40;;
1719;SDS011;857;52.872;9.692;2022-07-17T08:52:36;1.77;;;1.63;;
1719;SDS011;857;52.872;9.692;2022-07-17T08:55:07;1.53;;;1.40;;
1719;SDS011;857;52.872;9.692;2022-07-17T08:57:36;3.70;;;2.40;;
1719;SDS011;857;52.872;9.692;2022-07-17T09:00:05;1.70;;;1.20;;
1719;SDS011;857;52.872;9.692;2022-07-17T09:02:32;1.50;;;1.40;;
1719;SDS011;857;52.872;9.692;2022-07-17T09:05:01;3.93;;;2.47;;
1719;SDS011;857;52.872;9.692;2022-07-17T09:07:30;1.53;;;1.20;;
1719;SDS011;857;52.872;9.692;2022-07-17T09:09:58;2.30;;;2.10;;
1719;SDS011;857;52.872;9.692;2022-07-17T09:12:25;1.73;;;1.63;;
1719;SDS011;857;52.872;9.692;2022-07-17T09:14:54;2.73;;;2.27;;
1719;SDS011;857;52.872;9.692;2022-07-17T09:17:22;5.33;;;2.30;;
1719;SDS011;857;52.872;9.692;2022-07-17T09:19:52;4.20;;;2.13;;
1719;SDS011;857;52.872;9.692;2022-07-17T09:22:20;9.20;;;3.47;;
1719;SDS011;857;52.872;9.692;2022-07-17T09:24:50;3.47;;;1.50;;
1719;SDS011;857;52.872;9.692;2022-07-17T09:27:28;2.10;;;1.30;;
1719;SDS011;857;52.872;9.692;2022-07-17T09:29:57;1.97;;;1.80;;
1719;SDS011;857;52.872;9.692;2022-07-17T09:32:26;2.83;;;2.00;;
1719;SDS011;857;52.872;9.692;2022-07-17T09:34:54;2.90;;;2.53;;
1719;SDS011;857;52.872;9.692;2022-07-17T09:37:22;1.53;;;1.43;;
1719;SDS011;857;52.872;9.692;2022-07-17T09:39:51;4.23;;;2.97;;
1719;SDS011;857;52.872;9.692;2022-07-17T09:42:24;4.50;;;2.53;;
1719;SDS011;857;52.872;9.692;2022-07-17T09:44:58;2.50;;;1.70;;
1719;SDS011;857;52.872;9.692;2022-07-17T09:47:27;1.77;;;1.53;;
1719;SDS011;857;52.872;9.692;2022-07-17T09:49:55;2.40;;;2.20;;
1719;SDS011;857;52.872;9.692;2022-07-17T09:52:24;2.07;;;1.80;;
1719;SDS011;857;52.872;9.692;2022-07-17T09:54:54;2.83;;;2.27;;
1719;SDS011;857;52.872;9.692;2022-07-17T09:57:22;4.60;;;2.33;;
1719;SDS011;857;52.872;9.692;2022-07-17T09:59:52;1.40;;;1.30;;
1719;SDS011;857;52.872;9.692;2022-07-17T10:02:20;1.33;;;1.23;;
1719;SDS011;857;52.872;9.692;2022-07-17T10:04:48;2.30;;;2.20;;
1719;SDS011;857;52.872;9.692;2022-07-17T10:07:16;2.90;;;2.60;;
1719;SDS011;857;52.872;9.692;2022-07-17T10:09:44;2.83;;;1.67;;
1719;SDS011;857;52.872;9.692;2022-07-17T10:12:14;4.40;;;2.33;;
1719;SDS011;857;52.872;9.692;2022-07-17T10:14:42;3.33;;;2.10;;
1719;SDS011;857;52.872;9.692;2022-07-17T10:17:10;4.70;;;2.23;;
1719;SDS011;857;52.872;9.692;2022-07-17T10:19:46;3.50;;;2.30;;
1719;SDS011;857;52.872;9.692;2022-07-17T10:22:14;4.10;;;1.83;;
1719;SDS011;857;52.872;9.692;2022-07-17T10:24:45;2.37;;;1.77;;
1719;SDS011;857;52.872;9.692;2022-07-17T10:27:22;3.77;;;2.43;;
1719;SDS011;857;52.872;9.692;2022-07-17T10:30:00;3.00;;;2.30;;
1719;SDS011;857;52.872;9.692;2022-07-17T10:32:28;2.00;;;1.83;;
1719;SDS011;857;52.872;9.692;2022-07-17T10:34:57;2.70;;;1.90;;
1719;SDS011;857;52.872;9.692;2022-07-17T10:37:27;2.00;;;1.50;;
1719;SDS011;857;52.872;9.692;2022-07-17T10:39:56;3.73;;;2.47;;
1719;SDS011;857;52.872;9.692;2022-07-17T10:42:42;2.80;;;2.47;;
1719;SDS011;857;52.872;9.692;2022-07-17T10:45:11;1.73;;;1.63;;
1719;SDS011;857;52.872;9.692;2022-07-17T10:47:43;2.03;;;1.87;;
1719;SDS011;857;52.872;9.692;2022-07-17T10:50:11;3.07;;;1.90;;
1719;SDS011;857;52.872;9.692;2022-07-17T10:52:39;4.10;;;2.07;;
1719;SDS011;857;52.872;9.692;2022-07-17T10:55:16;3.03;;;2.13;;
1719;SDS011;857;52.872;9.692;2022-07-17T10:57:46;3.40;;;1.87;;
1719;SDS011;857;52.872;9.692;2022-07-17T11:00:14;1.53;;;1.43;;
1719;SDS011;857;52.872;9.692;2022-07-17T11:02:42;4.40;;;1.90;;
1719;SDS011;857;52.872;9.692;2022-07-17T11:05:10;2.83;;;2.30;;
1719;SDS011;857;52.872;9.692;2022-07-17T11:07:48;2.20;;;1.97;;
1719;SDS011;857;52.872;9.692;2022-07-17T11:10:15;1.63;;;1.53;;
1719;SDS011;857;52.872;9.692;2022-07-17T11:12:43;3.13;;;1.87;;
1719;SDS011;857;52.872;9.692;2022-07-17T11:15:12;2.13;;;1.93;;
1719;SDS011;857;52.872;9.692;2022-07-17T11:17:43;1.90;;;1.70;;
1719;SDS011;857;52.872;9.692;2022-07-17T11:20:11;2.43;;;1.90;;
1719;SDS011;857;52.872;9.692;2022-07-17T11:22:39;5.47;;;2.13;;
1719;SDS011;857;52.872;9.692;2022-07-17T11:25:07;2.30;;;1.97;;
1719;SDS011;857;52.872;9.692;2022-07-17T11:27:37;4.57;;;1.70;;
1719;SDS011;857;52.872;9.692;2022-07-17T11:30:05;2.17;;;1.60;;
1719;SDS011;857;52.872;9.692;2022-07-17T11:32:40;2.33;;;2.13;;
1719;SDS011;857;52.872;9.692;2022-07-17T11:35:15;2.90;;;2.00;;
1719;SDS011;857;52.872;9.692;2022-07-17T11:37:43;3.67;;;2.30;;
1719;SDS011;857;52.872;9.692;2022-07-17T11:40:11;3.50;;;2.43;;
1719;SDS011;857;52.872;9.692;2022-07-17T11:42:38;1.50;;;1.40;;
1719;SDS011;857;52.872;9.692;2022-07-17T11:45:07;1.93;;;1.23;;
1719;SDS011;857;52.872;9.692;2022-07-17T11:47:35;1.70;;;1.60;;
1719;SDS011;857;52.872;9.692;2022-07-17T11:50:08;1.80;;;1.70;;
1719;SDS011;857;52.872;9.692;2022-07-17T11:52:40;2.43;;;1.80;;
1719;SDS011;857;52.872;9.692;2022-07-17T11:55:08;3.73;;;1.70;;
1719;SDS011;857;52.872;9.692;2022-07-17T11:57:43;1.50;;;1.40;;
1719;SDS011;857;52.872;9.692;2022-07-17T12:00:12;2.83;;;2.10;;
1719;SDS011;857;52.872;9.692;2022-07-17T12:02:40;2.43;;;2.23;;
1719;SDS011;857;52.872;9.692;2022-07-17T12:05:09;2.90;;;2.20;;
1719;SDS011;857;52.872;9.692;2022-07-17T12:07:41;2.73;;;2.27;;
1719;SDS011;857;52.872;9.692;2022-07-17T12:10:15;7.80;;;2.80;;
1719;SDS011;857;52.872;9.692;2022-07-17T12:12:53;2.80;;;2.17;;
1719;SDS011;857;52.872;9.692;2022-07-17T12:15:22;5.47;;;2.40;;
1719;SDS011;857;52.872;9.692;2022-07-17T12:18:01;4.97;;;2.07;;
1719;SDS011;857;52.872;9.692;2022-07-17T12:20:41;3.80;;;1.37;;
1719;SDS011;857;52.872;9.692;2022-07-17T12:23:08;4.30;;;2.77;;
1719;SDS011;857;52.872;9.692;2022-07-17T12:25:36;1.80;;;1.70;;
1719;SDS011;857;52.872;9.692;2022-07-17T12:28:04;3.80;;;2.30;;
1719;SDS011;857;52.872;9.692;2022-07-17T12:30:32;1.93;;;1.60;;
1719;SDS011;857;52.872;9.692;2022-07-17T12:33:00;4.00;;;2.40;;
1719;SDS011;857;52.872;9.692;2022-07-17T12:35:27;3.10;;;2.13;;
1719;SDS011;857;52.872;9.692;2022-07-17T12:37:56;1.73;;;1.63;;
1719;SDS011;857;52.872;9.692;2022-07-17T12:40:24;2.57;;;1.90;;
1719;SDS011;857;52.872;9.692;2022-07-17T12:42:52;3.70;;;2.30;;
1719;SDS011;857;52.872;9.692;2022-07-17T12:45:20;4.27;;;1.70;;
1719;SDS011;857;52.872;9.692;2022-07-17T12:47:48;2.60;;;1.60;;
1719;SDS011;857;52.872;9.692;2022-07-17T12:50:15;8.43;;;2.27;;
1719;SDS011;857;52.872;9.692;2022-07-17T12:52:43;2.30;;;2.10;;
1719;SDS011;857;52.872;9.692;2022-07-17T12:55:12;3.73;;;2.27;;
1719;SDS011;857;52.872;9.692;2022-07-17T12:57:40;1.23;;;1.23;;
1719;SDS011;857;52.872;9.692;2022-07-17T13:00:08;1.83;;;1.67;;
1719;SDS011;857;52.872;9.692;2022-07-17T13:02:36;3.33;;;2.00;;
1719;SDS011;857;52.872;9.692;2022-07-17T13:05:04;2.00;;;1.53;;
1719;SDS011;857;52.872;9.692;2022-07-17T13:07:32;5.90;;;1.90;;
1719;SDS011;857;52.872;9.692;2022-07-17T13:10:00;1.73;;;1.60;;
1719;SDS011;857;52.872;9.692;2022-07-17T13:12:29;1.60;;;1.50;;
1719;SDS011;857;52.872;9.692;2022-07-17T13:14:57;3.70;;;1.80;;
1719;SDS011;857;52.872;9.692;2022-07-17T13:17:26;3.53;;;1.40;;
1719;SDS011;857;52.872;9.692;2022-07-17T13:19:53;2.20;;;1.70;;
1719;SDS011;857;52.872;9.692;2022-07-17T13:22:21;2.20;;;1.20;;
1719;SDS011;857;52.872;9.692;2022-07-17T13:24:49;2.33;;;1.70;;
1719;SDS011;857;52.872;9.692;2022-07-17T13:27:16;2.77;;;1.80;;
1719;SDS011;857;52.872;9.692;2022-07-17T13:29:45;2.23;;;1.40;;
1719;SDS011;857;52.872;9.692;2022-07-17T13:32:13;1.40;;;1.30;;
1719;SDS011;857;52.872;9.692;2022-07-17T13:34:41;1.27;;;1.20;;
1719;SDS011;857;52.872;9.692;2022-07-17T13:37:08;2.97;;;1.40;;
1719;SDS011;857;52.872;9.692;2022-07-17T13:39:36;2.30;;;1.33;;
1719;SDS011;857;52.872;9.692;2022-07-17T13:42:04;1.47;;;1.37;;
1719;SDS011;857;52.872;9.692;2022-07-17T13:44:31;0.90;;;0.90;;
1719;SDS011;857;52.872;9.692;2022-07-17T13:47:00;2.70;;;1.40;;
1719;SDS011;857;52.872;9.692;2022-07-17T13:49:28;1.00;;;1.00;;
1719;SDS011;857;52.872;9.692;2022-07-17T13:51:56;2.60;;;1.27;;
1719;SDS011;857;52.872;9.692;2022-07-17T13:54:24;1.53;;;1.43;;
1719;SDS011;857;52.872;9.692;2022-07-17T13:56:51;1.10;;;1.00;;
1719;SDS011;857;52.872;9.692;2022-07-17T13:59:19;4.63;;;1.50;;
1719;SDS011;857;52.872;9.692;2022-07-17T14:01:47;2.30;;;1.60;;
1719;SDS011;857;52.872;9.692;2022-07-17T14:04:16;2.10;;;1.50;;
1719;SDS011;857;52.872;9.692;2022-07-17T14:06:44;1.80;;;1.13;;
1719;SDS011;857;52.872;9.692;2022-07-17T14:09:12;1.47;;;1.37;;
1719;SDS011;857;52.872;9.692;2022-07-17T14:11:39;1.57;;;1.13;;
1719;SDS011;857;52.872;9.692;2022-07-17T14:14:07;1.50;;;1.27;;
1719;SDS011;857;52.872;9.692;2022-07-17T14:16:34;3.70;;;1.47;;
1719;SDS011;857;52.872;9.692;2022-07-17T14:19:02;1.40;;;1.30;;
1719;SDS011;857;52.872;9.692;2022-07-17T14:21:32;1.20;;;1.00;;
1719;SDS011;857;52.872;9.692;2022-07-17T14:24:00;1.23;;;1.00;;
1719;SDS011;857;52.872;9.692;2022-07-17T14:26:28;1.67;;;1.57;;
1719;SDS011;857;52.872;9.692;2022-07-17T14:28:56;2.57;;;1.57;;
1719;SDS011;857;52.872;9.692;2022-07-17T14:31:24;1.33;;;1.23;;
1719;SDS011;857;52.872;9.692;2022-07-17T14:33:51;3.03;;;1.23;;
1719;SDS011;857;52.872;9.692;2022-07-17T14:36:19;2.53;;;1.47;;
1719;SDS011;857;52.872;9.692;2022-07-17T14:38:48;1.73;;;1.30;;
1719;SDS011;857;52.872;9.692;2022-07-17T14:41:16;1.00;;;1.00;;
1719;SDS011;857;52.872;9.692;2022-07-17T14:43:44;1.43;;;1.20;;
1719;SDS011;857;52.872;9.692;2022-07-17T14:46:11;1.47;;;1.27;;
1719;SDS011;857;52.872;9.692;2022-07-17T14:48:39;1.63;;;1.30;;
1719;SDS011;857;52.872;9.692;2022-07-17T14:51:07;1.90;;;1.40;;
1719;SDS011;857;52.872;9.692;2022-07-17T14:53:35;1.80;;;1.20;;
1719;SDS011;857;52.872;9.692;2022-07-17T14:56:04;1.63;;;1.10;;
1719;SDS011;857;52.872;9.692;2022-07-17T14:58:32;2.33;;;1.27;;
1719;SDS011;857;52.872;9.692;2022-07-17T15:00:59;1.23;;;1.13;;
1719;SDS011;857;52.872;9.692;2022-07-17T15:03:27;1.30;;;1.20;;
1719;SDS011;857;52.872;9.692;2022-07-17T15:05:56;1.60;;;1.27;;
1719;SDS011;857;52.872;9.692;2022-07-17T15:08:23;1.30;;;1.30;;
1719;SDS011;857;52.872;9.692;2022-07-17T15:10:51;1.40;;;1.30;;
1719;SDS011;857;52.872;9.692;2022-07-17T15:13:20;1.43;;;1.00;;
1719;SDS011;857;52.872;9.692;2022-07-17T15:15:48;1.20;;;1.20;;
1719;SDS011;857;52.872;9.692;2022-07-17T15:18:15;1.70;;;1.43;;
1719;SDS011;857;52.872;9.692;2022-07-17T15:20:43;4.53;;;1.63;;
1719;SDS011;857;52.872;9.692;2022-07-17T15:23:11;1.00;;;1.00;;
1719;SDS011;857;52.872;9.692;2022-07-17T15:25:38;1.30;;;0.93;;
1719;SDS011;857;52.872;9.692;2022-07-17T15:28:06;1.70;;;1.27;;
1719;SDS011;857;52.872;9.692;2022-07-17T15:30:35;1.00;;;0.87;;
1719;SDS011;857;52.872;9.692;2022-07-17T15:33:03;1.20;;;1.10;;
1719;SDS011;857;52.872;9.692;2022-07-17T15:35:30;1.53;;;0.93;;
1719;SDS011;857;52.872;9.692;2022-07-17T15:37:58;1.17;;;1.17;;